createdAt,value
2023-05-05T00:00:28.600Z,48.23
2023-05-05T00:01:28.556Z,48.29
2023-05-05T00:02:28.675Z,48.22
2023-05-05T00:03:28.748Z,47.85
2023-05-05T00:04:28.671Z,47.51
2023-05-05T00:05:28.713Z,47.17
2023-05-05T00:06:28.824Z,47.10
2023-05-05T00:07:28.825Z,46.93
2023-05-05T00:08:28.851Z,47.18
2023-05-05T00:09:28.874Z,47.60
2023-05-05T00:10:29.221Z,48.10
2023-05-05T00:11:28.908Z,48.18
2023-05-05T00:12:28.976Z,48.05
2023-05-05T00:13:28.962Z,47.99
2023-05-05T00:14:28.969Z,48.27
2023-05-05T00:15:29.047Z,49.65
2023-05-05T00:16:29.098Z,50.02
2023-05-05T00:17:29.061Z,49.69
2023-05-05T00:18:29.092Z,49.75
2023-05-05T00:19:29.064Z,50.23
2023-05-05T00:20:29.045Z,50.88
2023-05-05T00:21:29.159Z,50.90
2023-05-05T00:22:29.113Z,50.75
2023-05-05T00:23:29.161Z,50.59
2023-05-05T00:24:29.186Z,50.65
2023-05-05T00:25:29.182Z,50.36
2023-05-05T00:26:29.248Z,50.21
2023-05-05T00:27:29.211Z,50.09
2023-05-05T00:28:29.173Z,50.11
2023-05-05T00:29:29.228Z,50.63
2023-05-05T00:30:29.198Z,51.68
2023-05-05T00:31:29.305Z,52.12
2023-05-05T00:32:29.292Z,52.16
2023-05-05T00:33:29.266Z,51.95
2023-05-05T00:34:29.235Z,51.76
2023-05-05T00:35:29.246Z,52.08
2023-05-05T00:36:29.233Z,52.33
2023-05-05T00:37:29.265Z,51.93
2023-05-05T00:38:29.292Z,51.31
2023-05-05T00:39:29.294Z,51.05
2023-05-05T00:40:29.304Z,51.07
2023-05-05T00:41:29.309Z,51.11
2023-05-05T00:42:29.333Z,50.82
2023-05-05T00:43:29.351Z,50.60
2023-05-05T00:44:29.431Z,50.45
2023-05-05T00:45:29.488Z,50.44
2023-05-05T00:46:29.615Z,50.59
2023-05-05T00:47:29.546Z,50.84
2023-05-05T00:48:29.591Z,50.87
2023-05-05T00:49:29.697Z,50.71
2023-05-05T00:50:29.669Z,50.63
2023-05-05T00:51:29.739Z,50.48
2023-05-05T00:52:29.738Z,50.33
2023-05-05T00:53:29.811Z,50.31
2023-05-05T00:54:29.831Z,50.14
2023-05-05T00:55:29.901Z,50.09
2023-05-05T00:56:29.988Z,50.10
2023-05-05T00:57:30.008Z,50.48
2023-05-05T00:58:30.027Z,50.72
2023-05-05T00:59:30.127Z,50.79
2023-05-05T01:00:30.143Z,51.19
2023-05-05T01:01:30.285Z,51.89
2023-05-05T01:02:30.300Z,51.99
2023-05-05T01:03:30.356Z,52.42
2023-05-05T01:04:30.314Z,52.83
2023-05-05T01:05:30.318Z,53.08
2023-05-05T01:06:30.338Z,53.22
2023-05-05T01:07:30.358Z,53.68
2023-05-05T01:08:30.424Z,53.84
2023-05-05T01:09:30.446Z,53.21
2023-05-05T01:10:30.491Z,52.60
2023-05-05T01:11:30.526Z,52.05
2023-05-05T01:12:30.647Z,51.55
2023-05-05T01:13:30.593Z,51.35
2023-05-05T01:14:30.594Z,51.63
2023-05-05T01:15:30.605Z,51.74
2023-05-05T01:16:30.606Z,51.86
2023-05-05T01:17:30.607Z,51.79
2023-05-05T01:18:30.573Z,51.71
2023-05-05T01:19:30.652Z,51.53
2023-05-05T01:20:30.669Z,51.43
2023-05-05T01:21:30.674Z,51.66
2023-05-05T01:22:30.708Z,51.57
2023-05-05T01:23:30.724Z,51.56
2023-05-05T01:24:30.770Z,51.39
2023-05-05T01:25:30.802Z,51.24
2023-05-05T01:26:30.818Z,51.17
2023-05-05T01:27:30.844Z,51.18
2023-05-05T01:28:30.936Z,51.24
2023-05-05T01:29:30.941Z,51.36
2023-05-05T01:30:30.980Z,51.36
2023-05-05T01:31:31.007Z,51.30
2023-05-05T01:32:30.973Z,51.34
2023-05-05T01:33:31.059Z,51.16
2023-05-05T01:34:31.084Z,51.14
2023-05-05T01:35:31.173Z,51.04
2023-05-05T01:36:31.173Z,50.95
2023-05-05T01:37:31.167Z,50.99
2023-05-05T01:38:31.166Z,50.88
2023-05-05T01:39:31.194Z,50.81
2023-05-05T01:40:31.296Z,50.82
2023-05-05T01:41:31.585Z,50.85
2023-05-05T01:42:31.398Z,50.82
2023-05-05T01:43:31.447Z,50.84
2023-05-05T01:44:31.583Z,50.79
2023-05-05T01:45:31.604Z,50.95
2023-05-05T01:46:31.636Z,51.95
2023-05-05T01:47:31.709Z,52.81
2023-05-05T01:48:31.741Z,53.02
2023-05-05T01:49:31.681Z,52.73
2023-05-05T01:50:31.718Z,52.32
2023-05-05T01:51:31.747Z,52.13
2023-05-05T01:52:31.819Z,51.80
2023-05-05T01:53:31.887Z,51.95
2023-05-05T01:54:31.940Z,52.13
2023-05-05T01:55:31.998Z,52.36
2023-05-05T01:56:31.969Z,52.85
2023-05-05T01:57:32.000Z,52.64
2023-05-05T01:58:32.013Z,52.55
2023-05-05T01:59:32.031Z,52.74
2023-05-05T02:00:32.033Z,52.83
2023-05-05T02:01:32.057Z,52.66
2023-05-05T02:02:32.148Z,52.53
2023-05-05T02:03:32.069Z,52.98
2023-05-05T02:04:32.104Z,53.75
2023-05-05T02:05:32.113Z,53.88
2023-05-05T02:06:32.175Z,53.93
2023-05-05T02:07:32.140Z,53.93
2023-05-05T02:08:32.168Z,53.89
2023-05-05T02:09:32.263Z,53.77
2023-05-05T02:10:32.282Z,53.92
2023-05-05T02:11:32.383Z,53.64
2023-05-05T02:12:32.458Z,53.51
2023-05-05T02:13:32.486Z,53.24
2023-05-05T02:14:32.446Z,52.99
2023-05-05T02:15:32.457Z,52.69
2023-05-05T02:16:32.522Z,52.68
2023-05-05T02:17:32.494Z,52.51
2023-05-05T02:18:32.512Z,52.51
2023-05-05T02:19:32.559Z,52.44
2023-05-05T02:20:32.575Z,52.52
2023-05-05T02:21:32.546Z,52.42
2023-05-05T02:22:32.553Z,52.43
2023-05-05T02:23:32.543Z,52.44
2023-05-05T02:24:32.602Z,52.37
2023-05-05T02:25:32.627Z,52.38
2023-05-05T02:26:32.617Z,52.44
2023-05-05T02:27:32.640Z,52.56
2023-05-05T02:28:32.615Z,52.57
2023-05-05T02:29:32.650Z,52.79
2023-05-05T02:30:32.652Z,52.84
2023-05-05T02:31:32.726Z,52.85
2023-05-05T02:32:32.659Z,52.84
2023-05-05T02:33:32.592Z,52.95
2023-05-05T02:34:32.628Z,53.58
2023-05-05T02:35:32.637Z,53.79
2023-05-05T02:36:32.680Z,53.86
2023-05-05T02:37:32.713Z,53.62
2023-05-05T02:38:32.690Z,53.26
2023-05-05T02:39:32.736Z,53.05
2023-05-05T02:40:32.758Z,53.14
2023-05-05T02:41:32.816Z,53.54
2023-05-05T02:42:32.810Z,54.14
2023-05-05T02:43:32.825Z,55.03
2023-05-05T02:44:32.873Z,55.24
2023-05-05T02:45:32.959Z,55.18
2023-05-05T02:46:33.082Z,55.18
2023-05-05T02:47:33.106Z,54.95
2023-05-05T02:48:33.132Z,54.68
2023-05-05T02:49:33.122Z,54.59
2023-05-05T02:50:33.161Z,54.55
2023-05-05T02:51:33.178Z,54.38
2023-05-05T02:52:33.142Z,54.27
2023-05-05T02:53:33.157Z,54.24
2023-05-05T02:54:33.191Z,54.63
2023-05-05T02:55:33.237Z,55.32
2023-05-05T02:56:33.283Z,55.37
2023-05-05T02:57:33.357Z,55.16
2023-05-05T02:58:33.441Z,55.21
2023-05-05T02:59:33.465Z,55.20
2023-05-05T03:00:33.508Z,55.31
2023-05-05T03:01:33.522Z,55.95
2023-05-05T03:02:33.605Z,56.05
2023-05-05T03:03:33.630Z,55.76
2023-05-05T03:04:33.520Z,55.57
2023-05-05T03:05:33.532Z,55.49
2023-05-05T03:06:33.612Z,55.55
2023-05-05T03:07:33.601Z,55.41
2023-05-05T03:08:33.580Z,55.24
2023-05-05T03:09:33.557Z,54.96
2023-05-05T03:10:33.581Z,54.73
2023-05-05T03:11:33.643Z,54.70
2023-05-05T03:12:33.715Z,54.42
2023-05-05T03:13:33.751Z,54.20
2023-05-05T03:14:33.751Z,54.46
2023-05-05T03:15:33.776Z,54.58
2023-05-05T03:16:33.853Z,54.42
2023-05-05T03:17:33.843Z,54.28
2023-05-05T03:18:33.802Z,54.69
2023-05-05T03:19:33.849Z,54.70
2023-05-05T03:20:33.807Z,54.85
2023-05-05T03:21:33.862Z,55.03
2023-05-05T03:22:33.909Z,55.11
2023-05-05T03:23:33.958Z,55.42
2023-05-05T03:24:34.041Z,55.38
2023-05-05T03:25:34.054Z,55.65
2023-05-05T03:26:34.106Z,55.46
2023-05-05T03:27:34.160Z,55.09
2023-05-05T03:28:34.157Z,54.61
2023-05-05T03:29:34.196Z,54.59
2023-05-05T03:30:34.192Z,54.46
2023-05-05T03:31:34.252Z,55.16
2023-05-05T03:32:34.289Z,55.19
2023-05-05T03:33:34.261Z,55.10
2023-05-05T03:34:34.287Z,54.63
2023-05-05T03:35:34.341Z,54.37
2023-05-05T03:36:34.339Z,54.30
2023-05-05T03:37:34.341Z,54.33
2023-05-05T03:38:34.350Z,54.42
2023-05-05T03:39:34.361Z,54.30
2023-05-05T03:40:43.419Z,53.85
2023-05-05T03:41:35.381Z,53.93
2023-05-05T03:42:34.305Z,53.89
2023-05-05T03:43:34.401Z,53.59
2023-05-05T03:44:34.316Z,53.53
2023-05-05T03:45:34.326Z,53.45
2023-05-05T03:46:34.301Z,53.92
2023-05-05T03:47:34.324Z,54.37
2023-05-05T03:48:34.320Z,54.93
2023-05-05T03:49:34.299Z,55.01
2023-05-05T03:50:34.249Z,55.24
2023-05-05T03:51:34.427Z,55.48
2023-05-05T03:52:34.382Z,55.89
2023-05-05T03:53:34.492Z,55.90
2023-05-05T03:54:34.562Z,56.16
2023-05-05T03:55:34.579Z,55.97
2023-05-05T03:56:34.598Z,55.44
2023-05-05T03:57:34.600Z,55.37
2023-05-05T03:58:34.637Z,55.51
2023-05-05T03:59:34.620Z,55.65
2023-05-05T04:00:34.715Z,56.19
2023-05-05T04:01:34.765Z,56.40
2023-05-05T04:02:34.811Z,56.14
2023-05-05T04:03:34.798Z,55.71
2023-05-05T04:04:34.914Z,55.23
2023-05-05T04:05:34.839Z,55.41
2023-05-05T04:06:34.951Z,55.52
2023-05-05T04:07:35.953Z,55.61
2023-05-05T04:08:35.015Z,55.65
2023-05-05T04:09:35.069Z,55.13
2023-05-05T04:10:35.134Z,54.71
2023-05-05T04:11:35.607Z,54.39
2023-05-05T04:12:35.214Z,54.05
2023-05-05T04:13:35.293Z,53.93
2023-05-05T04:14:35.316Z,53.73
2023-05-05T04:15:35.324Z,53.50
2023-05-05T04:16:35.318Z,53.25
2023-05-05T04:17:35.384Z,53.02
2023-05-05T04:18:35.326Z,52.98
2023-05-05T04:19:35.334Z,52.97
2023-05-05T04:20:35.355Z,53.16
2023-05-05T04:21:35.449Z,53.67
2023-05-05T04:22:35.391Z,53.96
2023-05-05T04:23:35.392Z,53.68
2023-05-05T04:24:35.364Z,53.33
2023-05-05T04:25:35.406Z,53.14
2023-05-05T04:26:35.390Z,52.86
2023-05-05T04:27:35.409Z,52.78
2023-05-05T04:28:35.400Z,52.48
2023-05-05T04:29:35.424Z,52.37
2023-05-05T04:30:35.487Z,52.35
2023-05-05T04:31:35.529Z,52.22
2023-05-05T04:32:35.510Z,52.07
2023-05-05T04:33:35.557Z,52.00
2023-05-05T04:34:35.542Z,52.28
2023-05-05T04:35:35.558Z,52.30
2023-05-05T04:36:35.569Z,52.21
2023-05-05T04:37:35.610Z,52.18
2023-05-05T04:38:35.679Z,52.14
2023-05-05T04:39:35.711Z,52.12
2023-05-05T04:40:35.721Z,51.98
2023-05-05T04:41:35.753Z,51.98
2023-05-05T04:42:35.795Z,51.93
2023-05-05T04:43:35.866Z,51.90
2023-05-05T04:44:35.813Z,51.90
2023-05-05T04:45:35.795Z,51.71
2023-05-05T04:46:35.862Z,51.66
2023-05-05T04:47:35.868Z,52.14
2023-05-05T04:48:35.856Z,52.39
2023-05-05T04:49:35.862Z,52.56
2023-05-05T04:50:35.877Z,52.88
2023-05-05T04:51:35.971Z,53.14
2023-05-05T04:52:35.954Z,53.54
2023-05-05T04:53:35.996Z,53.92
2023-05-05T04:54:36.021Z,54.12
2023-05-05T04:55:36.008Z,54.45
2023-05-05T04:56:36.061Z,54.17
2023-05-05T04:57:36.123Z,53.72
2023-05-05T04:58:36.140Z,53.53
2023-05-05T04:59:36.149Z,54.22
2023-05-05T05:00:36.178Z,54.07
2023-05-05T05:01:49.670Z,53.73
2023-05-05T05:02:36.223Z,53.31
2023-05-05T05:03:36.582Z,52.87
2023-05-05T05:04:36.196Z,52.72
2023-05-05T05:05:36.190Z,52.47
2023-05-05T05:06:36.128Z,52.58
2023-05-05T05:07:36.148Z,52.70
2023-05-05T05:08:36.143Z,52.92
2023-05-05T05:09:36.104Z,53.27
2023-05-05T05:10:36.153Z,53.21
2023-05-05T05:11:36.118Z,53.05
2023-05-05T05:12:36.208Z,52.95
2023-05-05T05:13:36.076Z,53.01
2023-05-05T05:14:36.086Z,53.10
2023-05-05T05:15:36.098Z,53.39
2023-05-05T05:16:36.260Z,53.09
2023-05-05T05:17:36.108Z,52.81
2023-05-05T05:18:36.060Z,52.52
2023-05-05T05:19:36.070Z,52.38
2023-05-05T05:20:36.026Z,52.33
2023-05-05T05:21:36.127Z,52.26
2023-05-05T05:22:36.147Z,51.91
2023-05-05T05:23:36.146Z,51.87
2023-05-05T05:24:36.106Z,51.68
2023-05-05T05:25:36.115Z,51.92
2023-05-05T05:26:36.211Z,52.32
2023-05-05T05:27:36.173Z,52.29
2023-05-05T05:28:36.237Z,52.12
2023-05-05T05:29:36.284Z,52.04
2023-05-05T05:30:36.251Z,52.00
2023-05-05T05:31:36.847Z,52.45
2023-05-05T05:32:36.313Z,53.12
2023-05-05T05:33:36.273Z,53.04
2023-05-05T05:34:36.292Z,52.82
2023-05-05T05:35:36.392Z,52.61
2023-05-05T05:36:36.738Z,52.73
2023-05-05T05:37:36.400Z,52.82
2023-05-05T05:38:36.481Z,52.92
2023-05-05T05:39:36.297Z,52.74
2023-05-05T05:40:36.546Z,52.48
2023-05-05T05:41:36.457Z,52.81
2023-05-05T05:42:36.489Z,52.80
2023-05-05T05:43:36.571Z,52.30
2023-05-05T05:44:36.606Z,52.28
2023-05-05T05:46:46.392Z,52.21
2023-05-05T05:47:36.709Z,52.44
2023-05-05T05:48:36.631Z,52.67
2023-05-05T05:49:36.637Z,52.52
2023-05-05T05:50:36.609Z,52.04
2023-05-05T05:51:36.603Z,51.34
2023-05-05T05:52:36.710Z,51.37
2023-05-05T05:53:36.714Z,51.29
2023-05-05T05:54:36.608Z,50.99
2023-05-05T05:55:36.632Z,50.83
2023-05-05T05:56:36.614Z,50.90
2023-05-05T05:57:36.672Z,50.96
2023-05-05T05:58:36.598Z,50.85
2023-05-05T05:59:36.543Z,50.34
2023-05-05T06:00:36.568Z,50.32
2023-05-05T06:01:36.551Z,50.06
2023-05-05T06:02:36.677Z,50.21
2023-05-05T06:03:36.612Z,50.19
2023-05-05T06:04:36.678Z,50.32
2023-05-05T06:05:36.530Z,50.78
2023-05-05T06:06:36.588Z,50.58
2023-05-05T06:07:36.588Z,50.31
2023-05-05T06:08:36.484Z,50.44
2023-05-05T06:09:36.518Z,50.47
2023-05-05T06:10:36.471Z,50.16
2023-05-05T06:11:36.664Z,49.99
2023-05-05T06:12:36.529Z,49.70
2023-05-05T06:13:36.448Z,49.57
2023-05-05T06:14:36.529Z,49.38
2023-05-05T06:15:36.494Z,49.16
2023-05-05T06:16:36.446Z,48.95
2023-05-05T06:17:36.518Z,48.75
2023-05-05T06:18:36.455Z,48.37
2023-05-05T06:19:36.422Z,47.74
2023-05-05T06:20:36.469Z,47.42
2023-05-05T06:21:36.388Z,47.63
2023-05-05T06:22:36.441Z,47.53
2023-05-05T06:23:36.398Z,47.25
2023-05-05T06:24:36.416Z,47.21
2023-05-05T06:25:36.419Z,46.56
2023-05-05T06:26:36.403Z,46.12
2023-05-05T06:27:36.352Z,45.91
2023-05-05T06:28:36.401Z,45.89
2023-05-05T06:29:36.434Z,45.97
2023-05-05T06:30:36.539Z,45.03
2023-05-05T06:31:36.586Z,45.02
2023-05-05T06:32:36.615Z,45.62
2023-05-05T06:33:36.579Z,45.83
2023-05-05T06:34:36.584Z,45.82
2023-05-05T06:35:36.686Z,45.55
2023-05-05T06:36:36.809Z,45.45
2023-05-05T06:37:36.810Z,45.48
2023-05-05T06:38:36.779Z,45.49
2023-05-05T06:39:36.772Z,45.67
2023-05-05T06:40:36.810Z,45.60
2023-05-05T06:41:36.789Z,45.30
2023-05-05T06:42:36.758Z,44.40
2023-05-05T06:43:36.825Z,44.41
2023-05-05T06:44:36.778Z,44.60
2023-05-05T06:45:36.853Z,44.92
2023-05-05T06:46:36.828Z,44.81
2023-05-05T06:47:37.899Z,44.71
2023-05-05T06:48:36.859Z,44.93
2023-05-05T06:49:36.779Z,44.88
2023-05-05T06:50:37.964Z,44.98
2023-05-05T06:51:36.810Z,44.80
2023-05-05T06:52:37.209Z,44.72
2023-05-05T06:53:36.798Z,43.92
2023-05-05T06:54:36.813Z,43.74
2023-05-05T06:55:36.757Z,43.70
2023-05-05T06:56:36.730Z,43.61
2023-05-05T06:57:36.789Z,43.23
2023-05-05T06:58:36.782Z,43.13
2023-05-05T06:59:36.754Z,42.71
2023-05-05T07:00:36.816Z,42.24
2023-05-05T07:01:36.776Z,42.06
2023-05-05T07:02:37.364Z,41.36
2023-05-05T07:03:36.689Z,41.56
2023-05-05T07:04:36.819Z,42.22
2023-05-05T07:05:36.806Z,42.88
2023-05-05T07:06:36.843Z,43.41
2023-05-05T07:07:36.839Z,43.05
2023-05-05T07:08:36.777Z,42.73
2023-05-05T07:09:36.985Z,42.42
2023-05-05T07:10:36.945Z,42.11
2023-05-05T07:11:36.950Z,41.84
2023-05-05T07:12:37.065Z,41.59
2023-05-05T07:13:37.047Z,41.18
2023-05-05T07:14:36.955Z,40.68
2023-05-05T07:15:37.071Z,40.60
2023-05-05T07:16:37.231Z,40.59
2023-05-05T07:17:37.269Z,40.62
2023-05-05T07:18:37.152Z,40.67
2023-05-05T07:19:37.161Z,39.83
2023-05-05T07:20:37.443Z,39.46
2023-05-05T07:21:37.215Z,39.52
2023-05-05T07:22:37.414Z,39.40
2023-05-05T07:23:37.442Z,39.66
2023-05-05T07:24:37.524Z,40.05
2023-05-05T07:25:37.447Z,40.28
2023-05-05T07:26:37.343Z,40.24
2023-05-05T07:27:37.752Z,40.30
2023-05-05T07:28:37.976Z,40.05
2023-05-05T07:29:37.591Z,40.14
2023-05-05T07:30:37.699Z,40.14
2023-05-05T07:31:37.744Z,40.50
2023-05-05T07:32:37.831Z,40.81
2023-05-05T07:33:37.762Z,40.50
2023-05-05T07:34:37.781Z,39.68
2023-05-05T07:35:37.833Z,39.97
2023-05-05T07:36:37.900Z,40.06
2023-05-05T07:37:38.239Z,39.59
2023-05-05T07:38:37.932Z,38.52
2023-05-05T07:39:38.009Z,37.58
2023-05-05T07:40:38.036Z,37.64
2023-05-05T07:41:38.062Z,37.65
2023-05-05T07:42:38.127Z,37.18
2023-05-05T07:43:39.297Z,37.17
2023-05-05T07:44:38.246Z,37.15
2023-05-05T07:45:38.301Z,36.33
2023-05-05T07:46:38.298Z,36.58
2023-05-05T07:47:38.394Z,36.74
2023-05-05T07:48:38.334Z,37.10
2023-05-05T07:49:38.339Z,36.81
2023-05-05T07:50:38.428Z,36.63
2023-05-05T07:51:38.415Z,36.86
2023-05-05T07:53:39.475Z,36.41
2023-05-05T07:54:38.542Z,36.06
2023-05-05T07:55:38.464Z,36.16
2023-05-05T07:56:38.383Z,36.24
2023-05-05T07:57:38.404Z,36.36
2023-05-05T07:58:38.475Z,36.61
2023-05-05T07:59:38.406Z,36.03
2023-05-05T08:00:38.431Z,36.12
2023-05-05T08:01:38.371Z,36.52
2023-05-05T08:02:38.490Z,37.02
2023-05-05T08:03:38.941Z,37.07
2023-05-05T08:04:38.574Z,37.11
2023-05-05T08:05:38.400Z,37.26
2023-05-05T08:06:38.433Z,36.97
2023-05-05T08:07:38.351Z,36.84
2023-05-05T08:08:38.456Z,36.87
2023-05-05T08:09:38.552Z,37.35
2023-05-05T08:10:38.653Z,37.47
2023-05-05T08:11:38.675Z,36.82
2023-05-05T08:12:38.615Z,36.29
2023-05-05T08:13:38.772Z,36.13
2023-05-05T08:14:38.712Z,36.16
2023-05-05T08:15:38.782Z,35.74
2023-05-05T08:16:38.796Z,34.82
2023-05-05T08:17:38.917Z,34.80
2023-05-05T08:18:38.925Z,34.53
2023-05-05T08:19:39.026Z,34.63
2023-05-05T08:20:39.013Z,34.46
2023-05-05T08:21:38.976Z,34.49
2023-05-05T08:22:38.979Z,34.13
2023-05-05T08:23:39.046Z,34.26
2023-05-05T08:24:38.987Z,34.37
2023-05-05T08:25:39.066Z,34.47
2023-05-05T08:26:39.169Z,34.59
2023-05-05T08:27:39.215Z,34.55
2023-05-05T08:28:39.290Z,34.02
2023-05-05T08:29:39.301Z,33.66
2023-05-05T08:30:39.375Z,33.04
2023-05-05T08:31:39.382Z,32.86
2023-05-05T08:32:39.409Z,32.49
2023-05-05T08:33:39.800Z,32.23
2023-05-05T08:34:39.417Z,32.20
2023-05-05T08:35:39.473Z,32.12
2023-05-05T08:36:39.579Z,32.08
2023-05-05T08:37:39.593Z,31.93
2023-05-05T08:38:39.676Z,32.27
2023-05-05T08:39:39.610Z,32.30
2023-05-05T08:40:39.602Z,32.33
2023-05-05T08:41:39.676Z,32.72
2023-05-05T08:42:39.797Z,32.31
2023-05-05T08:43:39.800Z,32.37
2023-05-05T08:44:39.727Z,32.05
2023-05-05T08:45:39.762Z,31.68
2023-05-05T08:46:40.004Z,31.30
2023-05-05T08:47:39.934Z,31.05
2023-05-05T08:48:40.265Z,31.23
2023-05-05T08:49:39.977Z,30.94
2023-05-05T08:50:39.985Z,30.89
2023-05-05T08:51:40.059Z,30.47
2023-05-05T08:52:40.322Z,30.73
2023-05-05T08:53:40.250Z,31.05
2023-05-05T08:54:40.236Z,30.92
2023-05-05T08:55:41.217Z,30.24
2023-05-05T08:56:40.310Z,30.05
2023-05-05T08:57:40.468Z,30.07
2023-05-05T08:58:40.350Z,30.09
2023-05-05T08:59:40.385Z,29.77
2023-05-05T09:00:40.394Z,29.51
2023-05-05T09:01:40.400Z,29.71
2023-05-05T09:02:40.516Z,29.78
2023-05-05T09:03:40.913Z,29.68
2023-05-05T09:04:40.431Z,29.92
2023-05-05T09:05:40.460Z,30.05
2023-05-05T09:06:40.459Z,29.90
2023-05-05T09:07:40.506Z,29.79
2023-05-05T09:08:40.805Z,29.28
2023-05-05T09:09:40.472Z,29.25
2023-05-05T09:10:40.496Z,28.85
2023-05-05T09:11:40.533Z,28.28
2023-05-05T09:12:40.749Z,28.25
2023-05-05T09:13:40.967Z,27.96
2023-05-05T09:14:40.739Z,27.35
2023-05-05T09:15:40.784Z,27.49
2023-05-05T09:16:40.851Z,27.54
2023-05-05T09:17:40.786Z,27.69
2023-05-05T09:18:40.874Z,27.73
2023-05-05T09:19:40.965Z,28.02
2023-05-05T09:20:40.894Z,27.59
2023-05-05T09:21:40.918Z,27.37
2023-05-05T09:22:41.163Z,27.54
2023-05-05T09:23:41.037Z,27.73
2023-05-05T09:24:41.209Z,27.92
2023-05-05T09:25:41.206Z,28.32
2023-05-05T09:26:41.146Z,27.66
2023-05-05T09:27:41.058Z,27.48
2023-05-05T09:28:41.257Z,27.12
2023-05-05T09:29:41.229Z,26.97
2023-05-05T09:30:41.318Z,26.67
2023-05-05T09:31:41.302Z,26.64
2023-05-05T09:32:41.425Z,26.52
2023-05-05T09:33:42.774Z,26.65
2023-05-05T09:34:42.276Z,26.56
2023-05-05T09:35:41.379Z,26.92
2023-05-05T09:36:41.886Z,26.80
2023-05-05T09:37:41.423Z,27.16
2023-05-05T09:38:41.473Z,27.26
2023-05-05T09:39:41.552Z,27.32
2023-05-05T09:40:41.585Z,27.06
2023-05-05T09:41:41.640Z,27.81
2023-05-05T09:42:41.702Z,27.49
2023-05-05T09:43:41.792Z,27.93
2023-05-05T09:44:41.691Z,27.22
2023-05-05T09:45:41.854Z,27.13
2023-05-05T09:46:41.823Z,27.22
2023-05-05T09:47:41.874Z,27.27
2023-05-05T09:48:42.292Z,27.03
2023-05-05T09:49:41.808Z,26.85
2023-05-05T09:50:41.914Z,26.34
2023-05-05T09:51:41.795Z,26.58
2023-05-05T09:52:42.013Z,26.45
2023-05-05T09:53:42.070Z,26.40
2023-05-05T09:54:41.968Z,26.88
2023-05-05T09:55:41.980Z,27.03
2023-05-05T09:56:42.486Z,26.91
2023-05-05T09:57:42.164Z,26.98
2023-05-05T09:58:42.326Z,27.10
2023-05-05T09:59:42.162Z,26.97
2023-05-05T10:00:42.280Z,26.97
2023-05-05T10:01:42.224Z,27.23
2023-05-05T10:02:42.351Z,27.37
2023-05-05T10:03:42.777Z,27.52
2023-05-05T10:04:42.416Z,26.92
2023-05-05T10:05:42.483Z,26.94
2023-05-05T10:06:42.509Z,26.73
2023-05-05T10:07:42.503Z,27.42
2023-05-05T10:08:42.623Z,27.96
2023-05-05T10:09:42.659Z,28.14
2023-05-05T10:10:42.722Z,27.74
2023-05-05T10:11:42.623Z,27.70
2023-05-05T10:12:42.762Z,27.32
2023-05-05T10:13:42.743Z,27.38
2023-05-05T10:14:42.753Z,27.42
2023-05-05T10:15:42.748Z,27.24
2023-05-05T10:16:42.866Z,26.87
2023-05-05T10:17:53.951Z,26.82
2023-05-05T10:18:43.961Z,26.15
2023-05-05T10:19:42.905Z,25.92
2023-05-05T10:20:42.881Z,25.67
2023-05-05T10:21:42.881Z,25.98
2023-05-05T10:22:42.888Z,26.24
2023-05-05T10:23:42.884Z,26.66
2023-05-05T10:24:42.971Z,26.55
2023-05-05T10:25:42.846Z,26.44
2023-05-05T10:26:42.902Z,26.48
2023-05-05T10:27:42.841Z,26.16
2023-05-05T10:28:43.288Z,25.64
2023-05-05T10:29:42.872Z,25.60
2023-05-05T10:30:42.951Z,25.33
2023-05-05T10:31:43.022Z,25.15
2023-05-05T10:33:43.185Z,25.73
2023-05-05T10:34:43.087Z,25.58
2023-05-05T10:35:43.087Z,25.50
2023-05-05T10:36:42.996Z,25.85
2023-05-05T10:37:43.030Z,25.85
2023-05-05T10:38:43.292Z,25.30
2023-05-05T10:39:42.973Z,25.05
2023-05-05T10:40:42.961Z,24.91
2023-05-05T10:41:43.608Z,24.84
2023-05-05T10:42:42.944Z,25.16
2023-05-05T10:43:43.299Z,25.34
2023-05-05T10:44:42.922Z,24.79
2023-05-05T10:45:43.123Z,24.52
2023-05-05T10:46:43.078Z,24.56
2023-05-05T10:47:43.114Z,24.52
2023-05-05T10:48:43.200Z,25.21
2023-05-05T10:49:43.326Z,25.18
2023-05-05T10:50:43.299Z,24.96
2023-05-05T10:51:43.395Z,24.67
2023-05-05T10:52:43.482Z,25.12
2023-05-05T10:53:43.411Z,25.02
2023-05-05T10:54:43.390Z,24.98
2023-05-05T10:55:43.454Z,25.09
2023-05-05T10:56:43.545Z,25.48
2023-05-05T10:57:43.569Z,25.17
2023-05-05T10:58:59.115Z,24.82
2023-05-05T10:59:44.634Z,24.77
2023-05-05T11:00:43.632Z,24.84
2023-05-05T11:01:44.107Z,24.66
2023-05-05T11:02:43.609Z,25.33
2023-05-05T11:03:43.640Z,25.34
2023-05-05T11:04:43.585Z,25.18
2023-05-05T11:05:43.570Z,24.90
2023-05-05T11:06:43.592Z,25.17
2023-05-05T11:07:43.533Z,25.22
2023-05-05T11:08:43.545Z,25.14
2023-05-05T11:09:43.548Z,25.09
2023-05-05T11:10:43.556Z,25.01
2023-05-05T11:11:43.605Z,24.94
2023-05-05T11:12:43.668Z,24.91
2023-05-05T11:13:43.660Z,25.19
2023-05-05T11:14:43.826Z,24.61
2023-05-05T11:15:43.692Z,25.33
2023-05-05T11:16:43.783Z,24.59
2023-05-05T11:17:43.755Z,24.44
2023-05-05T11:18:43.708Z,24.58
2023-05-05T11:19:43.729Z,24.94
2023-05-05T11:20:43.776Z,24.56
2023-05-05T11:21:43.749Z,25.06
2023-05-05T11:22:43.850Z,25.05
2023-05-05T11:23:43.744Z,24.71
2023-05-05T11:24:43.767Z,24.52
2023-05-05T11:25:43.859Z,25.04
2023-05-05T11:26:43.969Z,24.22
2023-05-05T11:27:43.953Z,23.88
2023-05-05T11:28:43.914Z,24.18
2023-05-05T11:29:43.995Z,24.24
2023-05-05T11:30:44.048Z,23.59
2023-05-05T11:31:43.948Z,23.45
2023-05-05T11:32:44.060Z,23.71
2023-05-05T11:33:44.112Z,23.83
2023-05-05T11:34:44.330Z,23.86
2023-05-05T11:35:44.227Z,23.96
2023-05-05T11:36:44.271Z,23.83
2023-05-05T11:37:44.956Z,23.70
2023-05-05T11:38:44.304Z,23.62
2023-05-05T11:39:44.787Z,23.29
2023-05-05T11:40:44.381Z,23.26
2023-05-05T11:41:44.380Z,22.94
2023-05-05T11:42:44.316Z,22.53
2023-05-05T11:43:44.429Z,22.66
2023-05-05T11:44:44.501Z,22.85
2023-05-05T11:45:44.465Z,22.29
2023-05-05T11:46:44.636Z,21.47
2023-05-05T11:47:44.583Z,20.74
2023-05-05T11:48:44.527Z,20.85
2023-05-05T11:49:44.734Z,21.96
2023-05-05T11:50:44.642Z,22.29
2023-05-05T11:51:44.645Z,21.69
2023-05-05T11:52:44.694Z,21.19
2023-05-05T11:53:44.606Z,22.71
2023-05-05T11:54:44.822Z,21.98
2023-05-05T11:55:44.704Z,22.07
2023-05-05T11:56:44.785Z,21.87
2023-05-05T11:57:44.734Z,22.31
2023-05-05T11:58:45.815Z,22.71
2023-05-05T11:59:44.904Z,22.73
2023-05-05T12:00:44.855Z,23.19
2023-05-05T12:01:44.879Z,23.50
2023-05-05T12:02:45.196Z,23.40
2023-05-05T12:03:45.101Z,22.79
2023-05-05T12:04:44.987Z,22.37
2023-05-05T12:05:45.003Z,22.18
2023-05-05T12:06:45.079Z,22.62
2023-05-05T12:07:45.166Z,22.14
2023-05-05T12:08:45.180Z,21.29
2023-05-05T12:09:45.281Z,21.26
2023-05-05T12:10:45.248Z,20.92
2023-05-05T12:11:45.307Z,20.99
2023-05-05T12:12:45.287Z,20.70
2023-05-05T12:13:45.337Z,20.65
2023-05-05T12:14:45.351Z,20.37
2023-05-05T12:15:45.361Z,20.18
2023-05-05T12:16:45.408Z,19.72
2023-05-05T12:17:45.383Z,19.73
2023-05-05T12:18:45.385Z,19.71
2023-05-05T12:19:45.410Z,19.77
2023-05-05T12:20:45.468Z,19.99
2023-05-05T12:21:45.498Z,18.89
2023-05-05T12:22:45.506Z,18.85
2023-05-05T12:23:45.532Z,18.52
2023-05-05T12:24:45.616Z,18.53
2023-05-05T12:25:45.647Z,18.47
2023-05-05T12:26:45.726Z,18.70
2023-05-05T12:27:45.703Z,18.99
2023-05-05T12:28:45.744Z,19.99
2023-05-05T12:29:45.866Z,19.57
2023-05-05T12:30:45.803Z,19.70
2023-05-05T12:31:45.834Z,19.27
2023-05-05T12:32:45.919Z,19.63
2023-05-05T12:33:45.892Z,19.78
2023-05-05T12:34:45.919Z,19.20
2023-05-05T12:35:45.911Z,19.73
2023-05-05T12:36:45.936Z,19.24
2023-05-05T12:37:45.948Z,18.83
2023-05-05T12:38:46.032Z,18.95
2023-05-05T12:39:46.205Z,18.81
2023-05-05T12:40:46.177Z,18.70
2023-05-05T12:41:46.148Z,18.47
2023-05-05T12:42:46.473Z,18.39
2023-05-05T12:43:46.206Z,18.22
2023-05-05T12:44:46.277Z,18.16
2023-05-05T12:45:46.421Z,17.92
2023-05-05T12:46:46.322Z,18.06
2023-05-05T12:47:46.422Z,17.92
2023-05-05T12:48:48.172Z,17.92
2023-05-05T12:49:46.384Z,17.84
2023-05-05T12:50:46.433Z,18.16
2023-05-05T12:51:46.525Z,18.21
2023-05-05T12:52:46.455Z,18.24
2023-05-05T12:53:46.512Z,18.58
2023-05-05T12:54:46.511Z,18.39
2023-05-05T12:55:46.659Z,18.67